sensor_id;sensor_type;location;lat;lon;timestamp;pressure;altitude;pressure_sealevel;temperature;humidity
57114;BME280;42994;51.606;9.988;2023-04-01T00:00:27;97033.56;;;8.72;100.00
57114;BME280;42994;51.606;9.988;2023-04-01T00:02:54;97033.34;;;8.73;100.00
57114;BME280;42994;51.606;9.988;2023-04-01T00:05:21;97030.22;;;8.76;100.00
57114;BME280;42994;51.606;9.988;2023-04-01T00:07:49;97033.00;;;8.81;100.00
57114;BME280;42994;51.606;9.988;2023-04-01T00:10:16;97034.50;;;8.77;100.00
57114;BME280;42994;51.606;9.988;2023-04-01T00:12:44;97034.88;;;8.81;100.00
57114;BME280;42994;51.606;9.988;2023-04-01T00:15:11;97038.72;;;8.85;100.00
57114;BME280;42994;51.606;9.988;2023-04-01T00:17:38;97040.47;;;8.91;100.00
57114;BME280;42994;51.606;9.988;2023-04-01T00:20:06;97031.16;;;8.82;100.00
57114;BME280;42994;51.606;9.988;2023-04-01T00:22:33;97030.69;;;8.85;100.00
57114;BME280;42994;51.606;9.988;2023-04-01T00:25:00;97031.16;;;8.82;100.00
57114;BME280;42994;51.606;9.988;2023-04-01T00:27:27;97038.34;;;8.81;100.00
57114;BME280;42994;51.606;9.988;2023-04-01T00:29:55;97032.28;;;8.74;100.00
57114;BME280;42994;51.606;9.988;2023-04-01T00:32:22;97031.03;;;8.77;100.00
57114;BME280;42994;51.606;9.988;2023-04-01T00:34:50;97034.06;;;8.80;100.00
57114;BME280;42994;51.606;9.988;2023-04-01T00:37:17;97029.28;;;8.71;100.00
57114;BME280;42994;51.606;9.988;2023-04-01T00:39:44;97020.94;;;8.79;100.00
57114;BME280;42994;51.606;9.988;2023-04-01T00:42:11;97018.72;;;8.76;100.00
57114;BME280;42994;51.606;9.988;2023-04-01T00:44:40;97021.84;;;8.73;100.00
57114;BME280;42994;51.606;9.988;2023-04-01T00:47:08;97029.63;;;8.74;100.00
57114;BME280;42994;51.606;9.988;2023-04-01T00:49:38;97015.00;;;8.77;100.00
57114;BME280;42994;51.606;9.988;2023-04-01T00:52:08;97016.75;;;8.71;100.00
57114;BME280;42994;51.606;9.988;2023-04-01T00:54:39;97028.09;;;8.66;100.00
57114;BME280;42994;51.606;9.988;2023-04-01T00:57:12;97021.03;;;8.72;100.00
57114;BME280;42994;51.606;9.988;2023-04-01T00:59:42;97020.22;;;8.72;100.00
57114;BME280;42994;51.606;9.988;2023-04-01T01:02:13;97023.22;;;8.63;100.00
57114;BME280;42994;51.606;9.988;2023-04-01T01:04:40;97018.91;;;8.62;100.00
57114;BME280;42994;51.606;9.988;2023-04-01T01:07:14;97028.22;;;8.60;100.00
57114;BME280;42994;51.606;9.988;2023-04-01T01:09:48;97024.84;;;8.64;100.00
57114;BME280;42994;51.606;9.988;2023-04-01T01:12:23;97028.22;;;8.60;100.00
57114;BME280;42994;51.606;9.988;2023-04-01T01:14:56;97024.84;;;8.64;100.00
57114;BME280;42994;51.606;9.988;2023-04-01T01:17:35;97008.69;;;8.59;100.00
57114;BME280;42994;51.606;9.988;2023-04-01T01:26:12;97007.78;;;8.65;100.00
57114;BME280;42994;51.606;9.988;2023-04-01T01:28:47;97018.56;;;8.59;100.00
57114;BME280;42994;51.606;9.988;2023-04-01T01:31:20;97010.09;;;8.62;100.00
57114;BME280;42994;51.606;9.988;2023-04-01T01:33:57;97008.09;;;8.57;100.00
57114;BME280;42994;51.606;9.988;2023-04-01T01:36:31;97006.84;;;8.60;100.00
57114;BME280;42994;51.606;9.988;2023-04-01T01:39:01;97009.25;;;8.61;100.00
57114;BME280;42994;51.606;9.988;2023-04-01T01:41:29;97012.41;;;8.58;100.00
57114;BME280;42994;51.606;9.988;2023-04-01T01:43:59;97006.59;;;8.61;100.00
57114;BME280;42994;51.606;9.988;2023-04-01T01:46:27;97011.56;;;8.58;100.00
57114;BME280;42994;51.606;9.988;2023-04-01T01:48:57;97013.66;;;8.56;100.00
57114;BME280;42994;51.606;9.988;2023-04-01T01:51:26;97006.00;;;8.59;100.00
57114;BME280;42994;51.606;9.988;2023-04-01T01:53:55;97013.22;;;8.59;100.00
57114;BME280;42994;51.606;9.988;2023-04-01T01:56:25;97006.00;;;8.59;100.00
57114;BME280;42994;51.606;9.988;2023-04-01T01:58:56;97008.38;;;8.68;100.00
57114;BME280;42994;51.606;9.988;2023-04-01T02:01:27;97019.16;;;8.61;100.00
57114;BME280;42994;51.606;9.988;2023-04-01T02:04:02;97014.38;;;8.63;100.00
57114;BME280;42994;51.606;9.988;2023-04-01T02:06:30;97015.97;;;8.52;100.00
57114;BME280;42994;51.606;9.988;2023-04-01T02:09:02;97015.88;;;8.47;100.00
57114;BME280;42994;51.606;9.988;2023-04-01T02:11:34;97011.56;;;8.46;100.00
57114;BME280;42994;51.606;9.988;2023-04-01T02:14:05;97010.53;;;8.47;100.00
57114;BME280;42994;51.606;9.988;2023-04-01T02:18:59;97010.53;;;8.47;100.00
57114;BME280;42994;51.606;9.988;2023-04-01T02:21:31;97016.91;;;8.46;100.00
57114;BME280;42994;51.606;9.988;2023-04-01T02:24:02;97005.84;;;8.42;100.00
57114;BME280;42994;51.606;9.988;2023-04-01T02:26:30;97014.28;;;8.39;100.00
57114;BME280;42994;51.606;9.988;2023-04-01T02:28:59;97015.91;;;8.40;100.00
57114;BME280;42994;51.606;9.988;2023-04-01T02:31:27;97010.75;;;8.45;100.00
57114;BME280;42994;51.606;9.988;2023-04-01T02:33:54;97014.06;;;8.41;100.00
57114;BME280;42994;51.606;9.988;2023-04-01T02:36:21;97010.81;;;8.39;100.00
57114;BME280;42994;51.606;9.988;2023-04-01T02:38:49;97010.06;;;8.32;100.00
57114;BME280;42994;51.606;9.988;2023-04-01T02:41:21;97008.31;;;8.44;100.00
57114;BME280;42994;51.606;9.988;2023-04-01T02:43:47;97012.66;;;8.38;100.00
57114;BME280;42994;51.606;9.988;2023-04-01T02:46:15;97004.38;;;8.28;100.00
57114;BME280;42994;51.606;9.988;2023-04-01T02:48:44;97008.56;;;8.36;100.00
57114;BME280;42994;51.606;9.988;2023-04-01T02:51:11;97023.50;;;8.43;100.00
57114;BME280;42994;51.606;9.988;2023-04-01T02:53:38;97017.06;;;8.33;100.00
57114;BME280;42994;51.606;9.988;2023-04-01T02:56:05;97019.16;;;8.31;100.00
57114;BME280;42994;51.606;9.988;2023-04-01T02:58:33;97018.41;;;8.42;100.00
57114;BME280;42994;51.606;9.988;2023-04-01T03:00:59;97014.06;;;8.41;100.00
57114;BME280;42994;51.606;9.988;2023-04-01T03:03:26;97019.03;;;8.37;100.00
57114;BME280;42994;51.606;9.988;2023-04-01T03:05:53;97016.13;;;8.39;100.00
57114;BME280;42994;51.606;9.988;2023-04-01T03:08:21;97021.06;;;8.42;100.00
57114;BME280;42994;51.606;9.988;2023-04-01T03:10:48;97020.53;;;8.33;100.00
57114;BME280;42994;51.606;9.988;2023-04-01T03:13:14;97018.88;;;8.32;100.00
57114;BME280;42994;51.606;9.988;2023-04-01T03:15:43;97025.28;;;8.31;100.00
57114;BME280;42994;51.606;9.988;2023-04-01T03:18:10;97010.53;;;8.28;100.00
57114;BME280;42994;51.606;9.988;2023-04-01T03:20:37;97012.88;;;8.37;100.00
57114;BME280;42994;51.606;9.988;2023-04-01T03:23:03;97012.16;;;8.30;100.00
57114;BME280;42994;51.606;9.988;2023-04-01T03:25:30;97016.00;;;8.34;100.00
57114;BME280;42994;51.606;9.988;2023-04-01T03:27:57;97022.75;;;8.36;100.00
57114;BME280;42994;51.606;9.988;2023-04-01T03:30:25;97022.75;;;8.36;100.00
57114;BME280;42994;51.606;9.988;2023-04-01T03:32:54;97024.91;;;8.46;100.00
57114;BME280;42994;51.606;9.988;2023-04-01T03:35:20;97020.91;;;8.37;100.00
57114;BME280;42994;51.606;9.988;2023-04-01T03:37:47;97025.06;;;8.33;100.00
57114;BME280;42994;51.606;9.988;2023-04-01T03:40:14;97033.88;;;8.33;100.00
57114;BME280;42994;51.606;9.988;2023-04-01T03:42:41;97029.34;;;8.34;100.00
57114;BME280;42994;51.606;9.988;2023-04-01T03:45:08;97034.25;;;8.37;100.00
57114;BME280;42994;51.606;9.988;2023-04-01T03:47:35;97022.19;;;8.34;100.00
57114;BME280;42994;51.606;9.988;2023-04-01T03:50:04;97032.38;;;8.37;100.00
57114;BME280;42994;51.606;9.988;2023-04-01T03:52:32;97028.31;;;8.35;100.00
57114;BME280;42994;51.606;9.988;2023-04-01T03:54:59;97033.50;;;8.30;100.00
57114;BME280;42994;51.606;9.988;2023-04-01T03:57:26;97035.63;;;8.39;100.00
57114;BME280;42994;51.606;9.988;2023-04-01T03:59:55;97031.28;;;8.26;100.00
57114;BME280;42994;51.606;9.988;2023-04-01T04:02:22;97028.75;;;8.32;100.00
57114;BME280;42994;51.606;9.988;2023-04-01T04:04:49;97026.69;;;8.34;100.00
57114;BME280;42994;51.606;9.988;2023-04-01T04:07:17;97035.03;;;8.37;100.00
57114;BME280;42994;51.606;9.988;2023-04-01T04:09:59;97034.91;;;8.32;100.00
57114;BME280;42994;51.606;9.988;2023-04-01T04:12:25;97042.25;;;8.37;100.00
57114;BME280;42994;51.606;9.988;2023-04-01T04:14:53;97038.94;;;8.23;100.00
57114;BME280;42994;51.606;9.988;2023-04-01T04:17:20;97039.06;;;8.28;100.00
57114;BME280;42994;51.606;9.988;2023-04-01T04:19:47;97044.78;;;8.32;100.00
57114;BME280;42994;51.606;9.988;2023-04-01T04:22:14;97038.28;;;8.27;100.00
57114;BME280;42994;51.606;9.988;2023-04-01T04:24:42;97035.38;;;8.29;100.00
57114;BME280;42994;51.606;9.988;2023-04-01T04:27:12;97040.72;;;8.29;100.00
57114;BME280;42994;51.606;9.988;2023-04-01T04:30:06;97033.84;;;8.21;100.00
57114;BME280;42994;51.606;9.988;2023-04-01T04:32:33;97035.59;;;8.27;100.00
57114;BME280;42994;51.606;9.988;2023-04-01T04:35:00;97036.78;;;8.32;100.00
57114;BME280;42994;51.606;9.988;2023-04-01T04:37:26;97039.03;;;8.16;100.00
57114;BME280;42994;51.606;9.988;2023-04-01T04:39:55;97040.56;;;8.24;100.00
57114;BME280;42994;51.606;9.988;2023-04-01T04:42:21;97032.84;;;8.16;100.00
57114;BME280;42994;51.606;9.988;2023-04-01T04:44:52;97040.22;;;8.20;100.00
57114;BME280;42994;51.606;9.988;2023-04-01T04:47:19;97038.44;;;8.14;100.00
57114;BME280;42994;51.606;9.988;2023-04-01T04:49:45;97039.91;;;8.10;100.00
57114;BME280;42994;51.606;9.988;2023-04-01T04:52:12;97039.03;;;8.16;100.00
57114;BME280;42994;51.606;9.988;2023-04-01T04:54:39;97045.84;;;8.12;100.00
57114;BME280;42994;51.606;9.988;2023-04-01T04:57:07;97041.13;;;8.14;100.00
57114;BME280;42994;51.606;9.988;2023-04-01T04:59:43;97042.72;;;8.15;100.00
57114;BME280;42994;51.606;9.988;2023-04-01T05:02:14;97042.16;;;8.13;100.00
57114;BME280;42994;51.606;9.988;2023-04-01T05:04:41;97047.03;;;8.16;100.00
57114;BME280;42994;51.606;9.988;2023-04-01T05:07:09;97046.81;;;8.18;100.00
57114;BME280;42994;51.606;9.988;2023-04-01T05:09:36;97046.81;;;8.18;100.00
57114;BME280;42994;51.606;9.988;2023-04-01T05:12:03;97045.97;;;8.17;100.00
57114;BME280;42994;51.606;9.988;2023-04-01T05:14:51;97052.38;;;8.16;100.00
57114;BME280;42994;51.606;9.988;2023-04-01T05:17:17;97057.88;;;8.21;100.00
57114;BME280;42994;51.606;9.988;2023-04-01T05:19:44;97060.97;;;8.18;100.00
57114;BME280;42994;51.606;9.988;2023-04-01T05:22:11;97052.81;;;8.13;100.00
57114;BME280;42994;51.606;9.988;2023-04-01T05:24:37;97055.03;;;8.16;100.00
57114;BME280;42994;51.606;9.988;2023-04-01T05:27:04;97065.72;;;8.16;100.00
57114;BME280;42994;51.606;9.988;2023-04-01T05:29:32;97071.06;;;8.16;100.00
57114;BME280;42994;51.606;9.988;2023-04-01T05:32:06;97054.69;;;8.13;100.00
57114;BME280;42994;51.606;9.988;2023-04-01T05:34:33;97050.94;;;8.14;100.00
57114;BME280;42994;51.606;9.988;2023-04-01T05:37:00;97059.19;;;8.12;100.00
57114;BME280;42994;51.606;9.988;2023-04-01T05:39:27;97053.19;;;8.17;100.00
57114;BME280;42994;51.606;9.988;2023-04-01T05:41:54;97060.75;;;8.20;100.00
57114;BME280;42994;51.606;9.988;2023-04-01T05:44:20;97068.38;;;8.16;100.00
57114;BME280;42994;51.606;9.988;2023-04-01T05:46:47;97065.72;;;8.16;100.00
57114;BME280;42994;51.606;9.988;2023-04-01T05:49:23;97075.34;;;8.17;100.00
57114;BME280;42994;51.606;9.988;2023-04-01T05:51:50;97072.66;;;8.17;100.00
57114;BME280;42994;51.606;9.988;2023-04-01T05:54:20;97069.94;;;8.24;100.00
57114;BME280;42994;51.606;9.988;2023-04-01T05:56:47;97075.94;;;8.19;100.00
57114;BME280;42994;51.606;9.988;2023-04-01T05:59:14;97062.00;;;8.17;100.00
57114;BME280;42994;51.606;9.988;2023-04-01T06:01:41;97074.91;;;8.20;100.00
57114;BME280;42994;51.606;9.988;2023-04-01T06:04:12;97065.25;;;8.19;100.00
57114;BME280;42994;51.606;9.988;2023-04-01T06:06:42;97069.13;;;8.23;100.00
57114;BME280;42994;51.606;9.988;2023-04-01T06:09:14;97074.84;;;8.27;100.00
57114;BME280;42994;51.606;9.988;2023-04-01T06:12:08;97078.69;;;8.31;100.00
57114;BME280;42994;51.606;9.988;2023-04-01T06:15:02;97075.78;;;8.33;100.00
57114;BME280;42994;51.606;9.988;2023-04-01T06:17:42;97076.38;;;8.35;100.00
57114;BME280;42994;51.606;9.988;2023-04-01T06:20:19;97076.22;;;8.30;100.00
57114;BME280;42994;51.606;9.988;2023-04-01T06:23:02;97079.25;;;8.33;100.00
57114;BME280;42994;51.606;9.988;2023-04-01T06:28:42;97080.00;;;8.40;100.00
57114;BME280;42994;51.606;9.988;2023-04-01T06:31:23;97086.34;;;8.39;100.00
57114;BME280;42994;51.606;9.988;2023-04-01T06:34:06;97089.19;;;8.44;100.00
57114;BME280;42994;51.606;9.988;2023-04-01T06:36:45;97084.09;;;8.43;100.00
57114;BME280;42994;51.606;9.988;2023-04-01T06:39:26;97087.03;;;8.35;100.00
57114;BME280;42994;51.606;9.988;2023-04-01T06:42:13;97096.00;;;8.40;100.00
57114;BME280;42994;51.606;9.988;2023-04-01T06:44:56;97092.69;;;8.45;100.00
57114;BME280;42994;51.606;9.988;2023-04-01T06:47:56;97091.88;;;8.44;100.00
57114;BME280;42994;51.606;9.988;2023-04-01T06:50:50;97094.75;;;8.43;100.00
57114;BME280;42994;51.606;9.988;2023-04-01T06:54:03;97095.06;;;8.53;100.00
57114;BME280;42994;51.606;9.988;2023-04-01T06:56:54;97087.19;;;8.58;100.00
57114;BME280;42994;51.606;9.988;2023-04-01T06:59:27;97098.53;;;8.54;100.00
57114;BME280;42994;51.606;9.988;2023-04-01T07:01:57;97100.25;;;8.48;100.00
57114;BME280;42994;51.606;9.988;2023-04-01T07:04:29;97102.50;;;8.63;100.00
57114;BME280;42994;51.606;9.988;2023-04-01T07:06:58;97101.78;;;8.56;100.00
57114;BME280;42994;51.606;9.988;2023-04-01T07:09:31;97097.53;;;8.66;100.00
57114;BME280;42994;51.606;9.988;2023-04-01T07:12:27;97102.44;;;8.70;100.00
57114;BME280;42994;51.606;9.988;2023-04-01T07:15:33;97096.38;;;8.62;100.00
57114;BME280;42994;51.606;9.988;2023-04-01T07:18:09;97105.66;;;8.60;100.00
57114;BME280;42994;51.606;9.988;2023-04-01T07:20:38;97105.78;;;8.65;100.00
57114;BME280;42994;51.606;9.988;2023-04-01T07:23:08;97108.16;;;8.73;100.00
57114;BME280;42994;51.606;9.988;2023-04-01T07:26:04;97098.75;;;8.71;100.00
57114;BME280;42994;51.606;9.988;2023-04-01T07:28:54;97100.03;;;8.80;100.00
57114;BME280;42994;51.606;9.988;2023-04-01T07:31:47;97096.00;;;8.89;100.00
57114;BME280;42994;51.606;9.988;2023-04-01T07:34:19;97104.91;;;8.83;100.00
57114;BME280;42994;51.606;9.988;2023-04-01T07:36:55;97105.06;;;8.88;100.00
57114;BME280;42994;51.606;9.988;2023-04-01T07:39:36;97109.38;;;8.89;100.00
57114;BME280;42994;51.606;9.988;2023-04-01T07:42:32;97107.13;;;8.86;100.00
57114;BME280;42994;51.606;9.988;2023-04-01T07:45:09;97106.78;;;8.82;100.00
57114;BME280;42994;51.606;9.988;2023-04-01T07:47:52;97110.63;;;8.87;100.00
57114;BME280;42994;51.606;9.988;2023-04-01T07:50:26;97113.25;;;8.75;100.00
57114;BME280;42994;51.606;9.988;2023-04-01T07:53:01;97116.88;;;8.80;100.00
57114;BME280;42994;51.606;9.988;2023-04-01T07:55:32;97119.34;;;8.82;100.00
57114;BME280;42994;51.606;9.988;2023-04-01T07:58:09;97117.25;;;8.84;100.00
57114;BME280;42994;51.606;9.988;2023-04-01T08:00:49;97114.72;;;8.89;100.00
57114;BME280;42994;51.606;9.988;2023-04-01T08:03:35;97119.94;;;8.96;100.00
57114;BME280;42994;51.606;9.988;2023-04-01T08:06:11;97121.50;;;9.03;100.00
57114;BME280;42994;51.606;9.988;2023-04-01T08:08:50;97121.72;;;9.02;100.00
57114;BME280;42994;51.606;9.988;2023-04-01T08:11:51;97126.59;;;9.05;100.00
57114;BME280;42994;51.606;9.988;2023-04-01T08:14:48;97133.94;;;9.10;100.00
57114;BME280;42994;51.606;9.988;2023-04-01T08:17:38;97133.13;;;9.09;100.00
57114;BME280;42994;51.606;9.988;2023-04-01T08:20:16;97131.84;;;9.12;100.00
57114;BME280;42994;51.606;9.988;2023-04-01T08:22:49;97143.84;;;9.21;100.00
57114;BME280;42994;51.606;9.988;2023-04-01T08:25:28;97140.00;;;9.17;100.00
57114;BME280;42994;51.606;9.988;2023-04-01T08:28:02;97141.97;;;9.21;100.00
57114;BME280;42994;51.606;9.988;2023-04-01T08:30:38;97148.69;;;9.12;100.00
57114;BME280;42994;51.606;9.988;2023-04-01T08:33:14;97152.81;;;9.27;100.00
57114;BME280;42994;51.606;9.988;2023-04-01T08:35:46;97149.44;;;9.31;100.00
57114;BME280;42994;51.606;9.988;2023-04-01T08:38:18;97153.66;;;9.39;100.00
57114;BME280;42994;51.606;9.988;2023-04-01T08:40:55;97151.91;;;9.45;100.00
57114;BME280;42994;51.606;9.988;2023-04-01T08:43:51;97162.59;;;9.45;100.00
57114;BME280;42994;51.606;9.988;2023-04-01T08:53:00;97157.25;;;9.56;100.00
57114;BME280;42994;51.606;9.988;2023-04-01T08:55:40;97169.75;;;9.62;100.00
57114;BME280;42994;51.606;9.988;2023-04-01T08:58:46;97174.50;;;9.72;100.00
57114;BME280;42994;51.606;9.988;2023-04-01T09:02:11;97172.41;;;9.74;100.00
57114;BME280;42994;51.606;9.988;2023-04-01T09:07:56;97166.34;;;9.67;100.00
57114;BME280;42994;51.606;9.988;2023-04-01T09:10:49;97165.56;;;9.78;100.00
57114;BME280;42994;51.606;9.988;2023-04-01T09:13:59;97164.97;;;9.76;100.00
57114;BME280;42994;51.606;9.988;2023-04-01T09:19:51;97168.59;;;9.94;100.00
57114;BME280;42994;51.606;9.988;2023-04-01T09:22:47;97178.25;;;9.95;100.00
57114;BME280;42994;51.606;9.988;2023-04-01T09:25:29;97181.38;;;10.04;100.00
57114;BME280;42994;51.606;9.988;2023-04-01T09:28:10;97180.69;;;9.85;100.00
57114;BME280;42994;51.606;9.988;2023-04-01T09:30:53;97183.25;;;9.91;100.00
57114;BME280;42994;51.606;9.988;2023-04-01T09:33:53;97178.81;;;10.09;100.00
57114;BME280;42994;51.606;9.988;2023-04-01T09:36:45;97185.56;;;9.99;100.00
57114;BME280;42994;51.606;9.988;2023-04-01T09:39:33;97186.03;;;10.08;100.00
57114;BME280;42994;51.606;9.988;2023-04-01T09:42:37;97188.75;;;10.32;100.00
57114;BME280;42994;51.606;9.988;2023-04-01T09:45:40;97193.72;;;10.40;100.00
57114;BME280;42994;51.606;9.988;2023-04-01T09:48:21;97195.47;;;10.46;100.00
57114;BME280;42994;51.606;9.988;2023-04-01T09:50:57;97197.47;;;10.39;100.00
57114;BME280;42994;51.606;9.988;2023-04-01T09:53:48;97209.22;;;10.50;100.00
57114;BME280;42994;51.606;9.988;2023-04-01T09:56:52;97209.56;;;10.30;100.00
57114;BME280;42994;51.606;9.988;2023-04-01T10:00:00;97202.34;;;10.54;100.00
57114;BME280;42994;51.606;9.988;2023-04-01T10:03:18;97211.19;;;10.54;100.00
57114;BME280;42994;51.606;9.988;2023-04-01T10:06:33;97216.66;;;10.60;100.00
57114;BME280;42994;51.606;9.988;2023-04-01T10:25:02;97230.22;;;10.93;100.00
57114;BME280;42994;51.606;9.988;2023-04-01T10:31:19;97233.97;;;10.69;100.00
57114;BME280;42994;51.606;9.988;2023-04-01T10:34:15;97238.38;;;10.75;100.00
57114;BME280;42994;51.606;9.988;2023-04-01T10:36:53;97238.66;;;10.73;100.00
57114;BME280;42994;51.606;9.988;2023-04-01T10:43:33;97237.75;;;10.96;100.00
57114;BME280;42994;51.606;9.988;2023-04-01T10:49:09;97241.69;;;11.06;100.00
57114;BME280;42994;51.606;9.988;2023-04-01T10:52:23;97239.69;;;10.84;100.00
57114;BME280;42994;51.606;9.988;2023-04-01T10:59:00;97246.44;;;10.75;100.00
57114;BME280;42994;51.606;9.988;2023-04-01T11:02:27;97241.91;;;10.75;100.00
57114;BME280;42994;51.606;9.988;2023-04-01T11:14:59;97245.84;;;10.85;100.00
57114;BME280;42994;51.606;9.988;2023-04-01T11:17:48;97248.53;;;10.73;100.00
57114;BME280;42994;51.606;9.988;2023-04-01T11:20:51;97252.97;;;10.67;100.00
57114;BME280;42994;51.606;9.988;2023-04-01T11:24:07;97256.00;;;10.71;100.00
57114;BME280;42994;51.606;9.988;2023-04-01T11:26:55;97260.66;;;10.64;100.00
57114;BME280;42994;51.606;9.988;2023-04-01T11:29:53;97259.59;;;10.76;100.00
57114;BME280;42994;51.606;9.988;2023-04-01T11:32:34;97259.47;;;10.83;100.00
57114;BME280;42994;51.606;9.988;2023-04-01T11:35:23;97268.59;;;10.58;100.00
57114;BME280;42994;51.606;9.988;2023-04-01T11:38:00;97264.19;;;10.64;100.00
57114;BME280;42994;51.606;9.988;2023-04-01T11:40:51;97266.94;;;10.81;100.00
57114;BME280;42994;51.606;9.988;2023-04-01T11:43:46;97258.19;;;10.86;100.00
57114;BME280;42994;51.606;9.988;2023-04-01T11:46:35;97268.66;;;10.87;100.00
57114;BME280;42994;51.606;9.988;2023-04-01T11:49:28;97266.78;;;11.00;100.00
57114;BME280;42994;51.606;9.988;2023-04-01T11:52:26;97268.16;;;11.02;100.00
57114;BME280;42994;51.606;9.988;2023-04-01T11:55:19;97271.53;;;11.09;100.00
57114;BME280;42994;51.606;9.988;2023-04-01T11:58:15;97275.63;;;11.12;100.00
57114;BME280;42994;51.606;9.988;2023-04-01T12:04:04;97281.03;;;11.29;100.00
57114;BME280;42994;51.606;9.988;2023-04-01T12:06:43;97280.06;;;11.35;100.00
57114;BME280;42994;51.606;9.988;2023-04-01T12:09:18;97277.38;;;11.35;100.00
57114;BME280;42994;51.606;9.988;2023-04-01T12:11:52;97281.81;;;11.41;100.00
57114;BME280;42994;51.606;9.988;2023-04-01T12:14:30;97285.88;;;11.44;100.00
57114;BME280;42994;51.606;9.988;2023-04-01T12:17:04;97291.00;;;11.45;100.00
57114;BME280;42994;51.606;9.988;2023-04-01T12:19:42;97296.25;;;11.52;100.00
57114;BME280;42994;51.606;9.988;2023-04-01T12:22:33;97292.59;;;11.58;100.00
57114;BME280;42994;51.606;9.988;2023-04-01T12:25:20;97296.91;;;11.59;100.00
57114;BME280;42994;51.606;9.988;2023-04-01T12:28:00;97294.72;;;11.73;100.00
57114;BME280;42994;51.606;9.988;2023-04-01T12:30:51;97305.94;;;11.70;100.00
57114;BME280;42994;51.606;9.988;2023-04-01T12:33:43;97304.09;;;11.70;100.00
57114;BME280;42994;51.606;9.988;2023-04-01T12:36:30;97303.38;;;11.46;100.00
57114;BME280;42994;51.606;9.988;2023-04-01T12:39:14;97314.19;;;11.51;100.00
57114;BME280;42994;51.606;9.988;2023-04-01T12:41:53;97302.84;;;11.61;100.00
57114;BME280;42994;51.606;9.988;2023-04-01T12:44:33;97314.16;;;11.63;100.00
57114;BME280;42994;51.606;9.988;2023-04-01T12:47:27;97311.75;;;11.50;100.00
57114;BME280;42994;51.606;9.988;2023-04-01T12:50:14;97309.50;;;11.59;100.00
57114;BME280;42994;51.606;9.988;2023-04-01T12:52:54;97318.84;;;11.56;100.00
57114;BME280;42994;51.606;9.988;2023-04-01T12:55:35;97307.91;;;11.74;100.00
57114;BME280;42994;51.606;9.988;2023-04-01T12:58:21;97316.03;;;11.63;100.00
57114;BME280;42994;51.606;9.988;2023-04-01T13:01:07;97320.28;;;11.76;100.00
57114;BME280;42994;51.606;9.988;2023-04-01T13:03:48;97320.56;;;11.62;100.00
57114;BME280;42994;51.606;9.988;2023-04-01T13:09:24;97325.66;;;11.76;100.00
57114;BME280;42994;51.606;9.988;2023-04-01T13:12:07;97325.47;;;11.65;100.00
57114;BME280;42994;51.606;9.988;2023-04-01T13:14:54;97329.00;;;11.83;100.00
57114;BME280;42994;51.606;9.988;2023-04-01T13:17:30;97316.88;;;11.80;100.00
57114;BME280;42994;51.606;9.988;2023-04-01T13:20:06;97318.50;;;11.81;100.00
57114;BME280;42994;51.606;9.988;2023-04-01T13:22:49;97324.53;;;11.88;100.00
57114;BME280;42994;51.606;9.988;2023-04-01T13:25:24;97337.63;;;11.56;100.00
57114;BME280;42994;51.606;9.988;2023-04-01T13:27:57;97338.34;;;11.80;100.00
57114;BME280;42994;51.606;9.988;2023-04-01T13:30:32;97336.63;;;11.74;100.00
57114;BME280;42994;51.606;9.988;2023-04-01T13:33:04;97331.84;;;11.76;100.00
57114;BME280;42994;51.606;9.988;2023-04-01T13:35:44;97335.84;;;11.62;100.00
57114;BME280;42994;51.606;9.988;2023-04-01T13:38:32;97345.56;;;11.51;100.00
57114;BME280;42994;51.606;9.988;2023-04-01T13:41:11;97344.91;;;11.72;100.00
57114;BME280;42994;51.606;9.988;2023-04-01T13:43:47;97337.75;;;11.49;100.00
57114;BME280;42994;51.606;9.988;2023-04-01T13:46:34;97348.56;;;11.66;100.00
57114;BME280;42994;51.606;9.988;2023-04-01T13:49:19;97338.97;;;11.42;100.00
57114;BME280;42994;51.606;9.988;2023-04-01T13:52:18;97348.22;;;11.22;100.00
57114;BME280;42994;51.606;9.988;2023-04-01T13:57:52;97356.19;;;11.58;100.00
57114;BME280;42994;51.606;9.988;2023-04-01T14:00:36;97358.69;;;11.64;100.00
57114;BME280;42994;51.606;9.988;2023-04-01T14:03:30;97356.22;;;11.74;100.00
57114;BME280;42994;51.606;9.988;2023-04-01T14:06:19;97357.28;;;11.73;100.00
57114;BME280;42994;51.606;9.988;2023-04-01T14:09:20;97355.44;;;11.62;100.00
57114;BME280;42994;51.606;9.988;2023-04-01T14:11:59;97348.94;;;11.58;100.00
57114;BME280;42994;51.606;9.988;2023-04-01T14:14:40;97352.66;;;11.57;100.00
57114;BME280;42994;51.606;9.988;2023-04-01T14:17:22;97351.28;;;11.54;100.00
57114;BME280;42994;51.606;9.988;2023-04-01T14:20:07;97353.97;;;11.54;100.00
57114;BME280;42994;51.606;9.988;2023-04-01T14:22:50;97355.50;;;11.50;100.00
57114;BME280;42994;51.606;9.988;2023-04-01T14:25:52;97356.78;;;11.48;100.00
57114;BME280;42994;51.606;9.988;2023-04-01T14:28:29;97359.09;;;11.56;100.00
57114;BME280;42994;51.606;9.988;2023-04-01T14:34:05;97366.41;;;11.20;100.00
57114;BME280;42994;51.606;9.988;2023-04-01T14:36:46;97367.91;;;11.28;100.00
57114;BME280;42994;51.606;9.988;2023-04-01T14:42:44;97373.03;;;11.29;100.00
57114;BME280;42994;51.606;9.988;2023-04-01T14:45:25;97372.22;;;11.29;100.00
57114;BME280;42994;51.606;9.988;2023-04-01T14:48:07;97377.72;;;11.22;100.00
57114;BME280;42994;51.606;9.988;2023-04-01T14:50:44;97382.50;;;11.32;100.00
57114;BME280;42994;51.606;9.988;2023-04-01T14:53:13;97380.75;;;11.38;100.00
57114;BME280;42994;51.606;9.988;2023-04-01T14:55:49;97388.50;;;11.51;100.00
57114;BME280;42994;51.606;9.988;2023-04-01T14:58:19;97388.28;;;11.41;100.00
57114;BME280;42994;51.606;9.988;2023-04-01T15:01:06;97393.31;;;11.49;100.00
57114;BME280;42994;51.606;9.988;2023-04-01T15:03:40;97394.16;;;11.38;100.00
57114;BME280;42994;51.606;9.988;2023-04-01T15:06:44;97390.06;;;11.35;100.00
57114;BME280;42994;51.606;9.988;2023-04-01T15:09:26;97399.16;;;11.34;100.00
57114;BME280;42994;51.606;9.988;2023-04-01T15:12:02;97407.75;;;11.48;100.00